Powell, Mississippi
Current Conditions -  °F | °C
As of 1:15 AM on Sunday 26 Oct 2014 (Local Time) from KUTA Reporting Station
Clear Clear  
Wind Chill: 63°   Ceiling: Unl
Heat Index: 63°   Visibility: 7mi
Dew Point: 61°   Wind: 3mph
Humidity: 94%   Direction: 170°S
Pressure: 30.03"   Gusts: NA
Location:  34.5324°N, 90.3891°W
Report Text: KUTA 260615Z AUTO 17003KT 7SM CLR 17/16 A3003 RMK AO2
Loading
Personal Weather Stations






























Interactive Weather Map
Tropical Storm Tracking
New forecast layout! Learn more

10-Day Weather Forecast

Advertisements
Track Severe Weather on mobile